sensor_id;sensor_type;location;lat;lon;timestamp;temperature;humidity
9323;DHT22;4700;48.822;9.270;2022-10-23T00:00:05;10.70;1.00
9323;DHT22;4700;48.822;9.270;2022-10-23T00:02:51;10.60;1.00
9323;DHT22;4700;48.822;9.270;2022-10-23T00:05:38;10.60;1.00
9323;DHT22;4700;48.822;9.270;2022-10-23T00:08:25;10.60;1.00
9323;DHT22;4700;48.822;9.270;2022-10-23T00:11:14;10.60;1.00
9323;DHT22;4700;48.822;9.270;2022-10-23T00:14:02;10.60;1.00
9323;DHT22;4700;48.822;9.270;2022-10-23T07:59:29;10.60;1.00
9323;DHT22;4700;48.822;9.270;2022-10-23T08:02:15;15.60;1.00
9323;DHT22;4700;48.822;9.270;2022-10-23T08:05:00;16.10;1.00
9323;DHT22;4700;48.822;9.270;2022-10-23T08:07:48;16.70;1.00
9323;DHT22;4700;48.822;9.270;2022-10-23T08:10:35;18.10;1.00
9323;DHT22;4700;48.822;9.270;2022-10-23T08:13:21;20.50;1.00
9323;DHT22;4700;48.822;9.270;2022-10-23T08:16:07;22.00;1.00
9323;DHT22;4700;48.822;9.270;2022-10-23T08:18:53;23.50;1.00
9323;DHT22;4700;48.822;9.270;2022-10-23T08:21:38;23.80;1.00
9323;DHT22;4700;48.822;9.270;2022-10-23T08:29:59;25.70;1.00
9323;DHT22;4700;48.822;9.270;2022-10-23T08:32:45;26.20;1.00
9323;DHT22;4700;48.822;9.270;2022-10-23T08:35:34;27.30;1.00
9323;DHT22;4700;48.822;9.270;2022-10-23T08:38:21;26.50;1.00
9323;DHT22;4700;48.822;9.270;2022-10-23T08:41:18;27.90;1.00
9323;DHT22;4700;48.822;9.270;2022-10-23T08:44:14;27.80;1.00
9323;DHT22;4700;48.822;9.270;2022-10-23T08:47:05;27.00;1.00
9323;DHT22;4700;48.822;9.270;2022-10-23T08:49:54;24.90;1.00
9323;DHT22;4700;48.822;9.270;2022-10-23T08:52:45;23.50;1.00
9323;DHT22;4700;48.822;9.270;2022-10-23T08:55:36;22.40;1.00
9323;DHT22;4700;48.822;9.270;2022-10-23T08:58:28;21.80;1.00
9323;DHT22;4700;48.822;9.270;2022-10-23T09:01:32;21.70;1.00
9323;DHT22;4700;48.822;9.270;2022-10-23T09:04:20;20.40;1.00
9323;DHT22;4700;48.822;9.270;2022-10-23T09:07:11;19.30;1.00
9323;DHT22;4700;48.822;9.270;2022-10-23T09:10:15;18.70;1.00
9323;DHT22;4700;48.822;9.270;2022-10-23T09:13:21;18.40;1.00
9323;DHT22;4700;48.822;9.270;2022-10-23T09:16:16;18.40;1.00
9323;DHT22;4700;48.822;9.270;2022-10-23T09:19:13;19.90;1.00
9323;DHT22;4700;48.822;9.270;2022-10-23T09:22:00;21.70;1.00
9323;DHT22;4700;48.822;9.270;2022-10-23T09:24:45;21.70;1.00
9323;DHT22;4700;48.822;9.270;2022-10-23T09:27:31;20.60;1.00
9323;DHT22;4700;48.822;9.270;2022-10-23T09:30:32;20.40;1.00
9323;DHT22;4700;48.822;9.270;2022-10-23T09:33:20;20.20;1.00
9323;DHT22;4700;48.822;9.270;2022-10-23T09:36:17;20.20;1.00
9323;DHT22;4700;48.822;9.270;2022-10-23T09:39:03;20.20;1.00
9323;DHT22;4700;48.822;9.270;2022-10-23T09:41:49;20.20;1.00
9323;DHT22;4700;48.822;9.270;2022-10-23T09:44:35;20.10;1.00
9323;DHT22;4700;48.822;9.270;2022-10-23T09:47:31;20.10;1.00
9323;DHT22;4700;48.822;9.270;2022-10-23T09:50:19;20.00;1.00
9323;DHT22;4700;48.822;9.270;2022-10-23T09:53:12;20.00;1.00
9323;DHT22;4700;48.822;9.270;2022-10-23T09:56:02;20.00;1.00
9323;DHT22;4700;48.822;9.270;2022-10-23T09:58:54;20.20;1.00
9323;DHT22;4700;48.822;9.270;2022-10-23T10:01:46;20.20;1.00
9323;DHT22;4700;48.822;9.270;2022-10-23T10:04:37;19.40;1.00
9323;DHT22;4700;48.822;9.270;2022-10-23T10:07:24;19.30;1.00
9323;DHT22;4700;48.822;9.270;2022-10-23T10:10:14;19.20;1.00
9323;DHT22;4700;48.822;9.270;2022-10-23T10:13:04;19.40;1.00
9323;DHT22;4700;48.822;9.270;2022-10-23T10:15:53;19.40;1.00
9323;DHT22;4700;48.822;9.270;2022-10-23T10:18:46;19.60;1.00
9323;DHT22;4700;48.822;9.270;2022-10-23T10:21:39;19.90;1.00
9323;DHT22;4700;48.822;9.270;2022-10-23T10:24:31;20.20;1.00
9323;DHT22;4700;48.822;9.270;2022-10-23T10:27:35;20.50;1.00
9323;DHT22;4700;48.822;9.270;2022-10-23T10:30:28;20.70;1.00
9323;DHT22;4700;48.822;9.270;2022-10-23T10:33:23;20.90;1.00
9323;DHT22;4700;48.822;9.270;2022-10-23T10:36:25;21.10;1.00
9323;DHT22;4700;48.822;9.270;2022-10-23T10:39:20;21.20;1.00
9323;DHT22;4700;48.822;9.270;2022-10-23T10:42:40;21.30;1.00
9323;DHT22;4700;48.822;9.270;2022-10-23T10:45:32;21.50;1.00
9323;DHT22;4700;48.822;9.270;2022-10-23T10:48:27;21.70;1.00
9323;DHT22;4700;48.822;9.270;2022-10-23T10:51:23;21.90;1.00
9323;DHT22;4700;48.822;9.270;2022-10-23T10:54:27;22.10;1.00
9323;DHT22;4700;48.822;9.270;2022-10-23T10:57:26;21.90;1.00
9323;DHT22;4700;48.822;9.270;2022-10-23T11:00:16;21.70;1.00
9323;DHT22;4700;48.822;9.270;2022-10-23T11:03:10;21.60;1.00
9323;DHT22;4700;48.822;9.270;2022-10-23T11:06:03;21.40;1.00
9323;DHT22;4700;48.822;9.270;2022-10-23T11:08:50;21.40;1.00
9323;DHT22;4700;48.822;9.270;2022-10-23T11:11:38;21.70;1.00
9323;DHT22;4700;48.822;9.270;2022-10-23T11:14:28;22.00;1.00
9323;DHT22;4700;48.822;9.270;2022-10-23T11:17:20;22.40;1.00
9323;DHT22;4700;48.822;9.270;2022-10-23T11:20:22;22.80;1.00
9323;DHT22;4700;48.822;9.270;2022-10-23T11:23:36;23.10;1.00
9323;DHT22;4700;48.822;9.270;2022-10-23T11:26:42;23.20;1.00
9323;DHT22;4700;48.822;9.270;2022-10-23T11:29:54;23.30;1.00
9323;DHT22;4700;48.822;9.270;2022-10-23T11:33:21;23.40;1.00
9323;DHT22;4700;48.822;9.270;2022-10-23T11:36:15;23.40;1.00
9323;DHT22;4700;48.822;9.270;2022-10-23T11:39:16;23.30;1.00
9323;DHT22;4700;48.822;9.270;2022-10-23T11:42:13;23.40;1.00
9323;DHT22;4700;48.822;9.270;2022-10-23T11:45:01;23.00;1.00
9323;DHT22;4700;48.822;9.270;2022-10-23T11:47:55;22.30;1.00
9323;DHT22;4700;48.822;9.270;2022-10-23T11:50:50;21.70;1.00
9323;DHT22;4700;48.822;9.270;2022-10-23T11:53:38;21.40;1.00
9323;DHT22;4700;48.822;9.270;2022-10-23T11:56:25;21.30;1.00
9323;DHT22;4700;48.822;9.270;2022-10-23T11:59:21;21.50;1.00
9323;DHT22;4700;48.822;9.270;2022-10-23T12:02:24;21.80;1.00
9323;DHT22;4700;48.822;9.270;2022-10-23T12:05:28;22.00;1.00
9323;DHT22;4700;48.822;9.270;2022-10-23T12:08:20;22.20;1.00
9323;DHT22;4700;48.822;9.270;2022-10-23T12:11:25;22.40;1.00
9323;DHT22;4700;48.822;9.270;2022-10-23T12:14:26;22.60;1.00
9323;DHT22;4700;48.822;9.270;2022-10-23T12:17:29;22.80;1.00
9323;DHT22;4700;48.822;9.270;2022-10-23T12:20:26;22.90;1.00
9323;DHT22;4700;48.822;9.270;2022-10-23T12:23:22;23.20;1.00
9323;DHT22;4700;48.822;9.270;2022-10-23T12:26:22;23.00;1.00
9323;DHT22;4700;48.822;9.270;2022-10-23T12:29:20;22.80;1.00
9323;DHT22;4700;48.822;9.270;2022-10-23T12:32:21;22.50;1.00
9323;DHT22;4700;48.822;9.270;2022-10-23T12:35:26;22.70;1.00
9323;DHT22;4700;48.822;9.270;2022-10-23T12:38:09;22.70;1.00
9323;DHT22;4700;48.822;9.270;2022-10-23T12:41:02;23.10;1.00
9323;DHT22;4700;48.822;9.270;2022-10-23T12:43:51;23.10;1.00
9323;DHT22;4700;48.822;9.270;2022-10-23T12:46:39;23.30;1.00
9323;DHT22;4700;48.822;9.270;2022-10-23T12:49:28;23.40;1.00
9323;DHT22;4700;48.822;9.270;2022-10-23T12:52:19;23.40;1.00
9323;DHT22;4700;48.822;9.270;2022-10-23T12:55:12;23.50;1.00
9323;DHT22;4700;48.822;9.270;2022-10-23T12:57:58;23.40;1.00
9323;DHT22;4700;48.822;9.270;2022-10-23T13:00:50;23.30;1.00
9323;DHT22;4700;48.822;9.270;2022-10-23T13:03:37;23.40;1.00
9323;DHT22;4700;48.822;9.270;2022-10-23T13:06:24;23.40;1.00
9323;DHT22;4700;48.822;9.270;2022-10-23T13:09:21;23.30;1.00
9323;DHT22;4700;48.822;9.270;2022-10-23T13:12:13;23.30;1.00
9323;DHT22;4700;48.822;9.270;2022-10-23T13:15:15;23.20;1.00
9323;DHT22;4700;48.822;9.270;2022-10-23T13:18:02;23.00;1.00
9323;DHT22;4700;48.822;9.270;2022-10-23T13:20:57;22.70;1.00
9323;DHT22;4700;48.822;9.270;2022-10-23T13:23:45;22.50;1.00
9323;DHT22;4700;48.822;9.270;2022-10-23T13:26:34;22.50;1.00
9323;DHT22;4700;48.822;9.270;2022-10-23T13:29:28;22.20;1.00
9323;DHT22;4700;48.822;9.270;2022-10-23T13:32:21;21.90;1.00
9323;DHT22;4700;48.822;9.270;2022-10-23T13:35:20;21.90;1.00
9323;DHT22;4700;48.822;9.270;2022-10-23T13:38:07;21.70;1.00
9323;DHT22;4700;48.822;9.270;2022-10-23T13:40:55;21.50;1.00
9323;DHT22;4700;48.822;9.270;2022-10-23T13:43:45;21.40;1.00
9323;DHT22;4700;48.822;9.270;2022-10-23T13:46:31;21.30;1.00
9323;DHT22;4700;48.822;9.270;2022-10-23T13:49:17;21.20;1.00
9323;DHT22;4700;48.822;9.270;2022-10-23T13:52:03;21.20;1.00
9323;DHT22;4700;48.822;9.270;2022-10-23T13:54:49;21.40;1.00
9323;DHT22;4700;48.822;9.270;2022-10-23T13:57:35;21.60;1.00
9323;DHT22;4700;48.822;9.270;2022-10-23T14:00:23;21.70;1.00
9323;DHT22;4700;48.822;9.270;2022-10-23T14:03:08;21.90;1.00
9323;DHT22;4700;48.822;9.270;2022-10-23T14:05:55;22.00;1.00
9323;DHT22;4700;48.822;9.270;2022-10-23T14:08:40;22.00;1.00
9323;DHT22;4700;48.822;9.270;2022-10-23T14:11:26;22.00;1.00
9323;DHT22;4700;48.822;9.270;2022-10-23T14:14:17;21.90;1.00
9323;DHT22;4700;48.822;9.270;2022-10-23T14:17:09;21.70;1.00
9323;DHT22;4700;48.822;9.270;2022-10-23T14:19:57;21.50;1.00
9323;DHT22;4700;48.822;9.270;2022-10-23T14:22:43;21.40;1.00
9323;DHT22;4700;48.822;9.270;2022-10-23T14:25:29;21.40;1.00
9323;DHT22;4700;48.822;9.270;2022-10-23T14:28:15;21.30;1.00
9323;DHT22;4700;48.822;9.270;2022-10-23T14:31:02;21.20;1.00
9323;DHT22;4700;48.822;9.270;2022-10-23T14:33:53;21.10;1.00
9323;DHT22;4700;48.822;9.270;2022-10-23T14:36:39;21.00;1.00
9323;DHT22;4700;48.822;9.270;2022-10-23T14:39:24;20.90;1.00
9323;DHT22;4700;48.822;9.270;2022-10-23T14:42:11;20.80;1.00
9323;DHT22;4700;48.822;9.270;2022-10-23T14:44:57;20.80;1.00
9323;DHT22;4700;48.822;9.270;2022-10-23T14:47:42;20.70;1.00
9323;DHT22;4700;48.822;9.270;2022-10-23T14:50:31;20.70;1.00
9323;DHT22;4700;48.822;9.270;2022-10-23T14:53:17;20.60;1.00
9323;DHT22;4700;48.822;9.270;2022-10-23T14:56:03;20.70;1.00
9323;DHT22;4700;48.822;9.270;2022-10-23T14:58:51;20.60;1.00
9323;DHT22;4700;48.822;9.270;2022-10-23T15:01:38;20.50;1.00
9323;DHT22;4700;48.822;9.270;2022-10-23T15:04:25;20.40;1.00
9323;DHT22;4700;48.822;9.270;2022-10-23T15:07:13;20.30;1.00
9323;DHT22;4700;48.822;9.270;2022-10-23T15:09:59;20.20;1.00
9323;DHT22;4700;48.822;9.270;2022-10-23T15:12:44;20.20;1.00
9323;DHT22;4700;48.822;9.270;2022-10-23T15:15:30;20.20;1.00
9323;DHT22;4700;48.822;9.270;2022-10-23T15:18:15;20.20;1.00
9323;DHT22;4700;48.822;9.270;2022-10-23T15:21:03;20.10;1.00
9323;DHT22;4700;48.822;9.270;2022-10-23T15:23:51;20.10;1.00
9323;DHT22;4700;48.822;9.270;2022-10-23T15:26:38;20.10;1.00
9323;DHT22;4700;48.822;9.270;2022-10-23T15:29:26;20.00;1.00
9323;DHT22;4700;48.822;9.270;2022-10-23T15:32:11;20.00;1.00
9323;DHT22;4700;48.822;9.270;2022-10-23T15:34:57;20.00;1.00
9323;DHT22;4700;48.822;9.270;2022-10-23T15:37:43;20.00;1.00
9323;DHT22;4700;48.822;9.270;2022-10-23T15:40:30;19.90;1.00
9323;DHT22;4700;48.822;9.270;2022-10-23T15:43:16;19.80;1.00
9323;DHT22;4700;48.822;9.270;2022-10-23T15:46:02;19.70;1.00
9323;DHT22;4700;48.822;9.270;2022-10-23T15:48:47;19.80;1.00
9323;DHT22;4700;48.822;9.270;2022-10-23T15:51:34;19.80;1.00
9323;DHT22;4700;48.822;9.270;2022-10-23T15:54:20;19.70;1.00
9323;DHT22;4700;48.822;9.270;2022-10-23T15:57:09;19.70;1.00
9323;DHT22;4700;48.822;9.270;2022-10-23T15:59:55;19.60;1.00
9323;DHT22;4700;48.822;9.270;2022-10-23T16:02:41;19.60;1.00
9323;DHT22;4700;48.822;9.270;2022-10-23T16:05:27;19.50;1.00
9323;DHT22;4700;48.822;9.270;2022-10-23T16:08:13;19.40;1.00
9323;DHT22;4700;48.822;9.270;2022-10-23T16:10:59;19.40;1.00
9323;DHT22;4700;48.822;9.270;2022-10-23T16:13:46;19.30;1.00
9323;DHT22;4700;48.822;9.270;2022-10-23T16:16:33;19.20;1.00
9323;DHT22;4700;48.822;9.270;2022-10-23T16:19:19;19.10;1.00
9323;DHT22;4700;48.822;9.270;2022-10-23T16:22:04;19.00;1.00
9323;DHT22;4700;48.822;9.270;2022-10-23T16:24:50;18.90;1.00
9323;DHT22;4700;48.822;9.270;2022-10-23T16:27:36;18.90;1.00
9323;DHT22;4700;48.822;9.270;2022-10-23T16:30:24;18.80;1.00
9323;DHT22;4700;48.822;9.270;2022-10-23T16:33:09;18.80;1.00
9323;DHT22;4700;48.822;9.270;2022-10-23T16:36:01;18.60;1.00
9323;DHT22;4700;48.822;9.270;2022-10-23T16:38:43;18.50;1.00
9323;DHT22;4700;48.822;9.270;2022-10-23T16:41:29;18.40;1.00
9323;DHT22;4700;48.822;9.270;2022-10-23T16:44:16;18.40;1.00
9323;DHT22;4700;48.822;9.270;2022-10-23T16:47:03;18.30;1.00
9323;DHT22;4700;48.822;9.270;2022-10-23T16:49:49;18.30;1.00
9323;DHT22;4700;48.822;9.270;2022-10-23T16:52:34;18.30;1.00
9323;DHT22;4700;48.822;9.270;2022-10-23T16:55:20;18.20;1.00
9323;DHT22;4700;48.822;9.270;2022-10-23T16:58:06;18.20;1.00
9323;DHT22;4700;48.822;9.270;2022-10-23T17:00:58;18.20;1.00
9323;DHT22;4700;48.822;9.270;2022-10-23T17:03:48;18.10;1.00
9323;DHT22;4700;48.822;9.270;2022-10-23T17:06:35;18.10;1.00
9323;DHT22;4700;48.822;9.270;2022-10-23T17:09:20;18.00;1.00
9323;DHT22;4700;48.822;9.270;2022-10-23T17:12:07;18.00;1.00
9323;DHT22;4700;48.822;9.270;2022-10-23T17:14:52;18.00;1.00
9323;DHT22;4700;48.822;9.270;2022-10-23T17:17:38;18.10;1.00
9323;DHT22;4700;48.822;9.270;2022-10-23T17:20:25;18.00;1.00
9323;DHT22;4700;48.822;9.270;2022-10-23T17:23:11;18.00;1.00
9323;DHT22;4700;48.822;9.270;2022-10-23T17:25:57;18.00;1.00
9323;DHT22;4700;48.822;9.270;2022-10-23T17:28:43;17.90;1.00
9323;DHT22;4700;48.822;9.270;2022-10-23T17:31:31;18.00;1.00
9323;DHT22;4700;48.822;9.270;2022-10-23T17:34:20;18.00;1.00
9323;DHT22;4700;48.822;9.270;2022-10-23T17:37:07;17.90;1.00
9323;DHT22;4700;48.822;9.270;2022-10-23T17:39:53;17.90;1.00
9323;DHT22;4700;48.822;9.270;2022-10-23T17:42:39;17.90;1.00
9323;DHT22;4700;48.822;9.270;2022-10-23T17:45:24;17.90;1.00
9323;DHT22;4700;48.822;9.270;2022-10-23T17:48:11;18.20;1.00
9323;DHT22;4700;48.822;9.270;2022-10-23T17:51:01;18.40;1.00
9323;DHT22;4700;48.822;9.270;2022-10-23T17:53:50;18.50;1.00
9323;DHT22;4700;48.822;9.270;2022-10-23T17:56:36;18.40;1.00
9323;DHT22;4700;48.822;9.270;2022-10-23T17:59:24;18.40;1.00
9323;DHT22;4700;48.822;9.270;2022-10-23T18:02:10;18.40;1.00
9323;DHT22;4700;48.822;9.270;2022-10-23T18:04:57;18.40;1.00
9323;DHT22;4700;48.822;9.270;2022-10-23T18:07:42;18.40;1.00
9323;DHT22;4700;48.822;9.270;2022-10-23T18:10:29;18.40;1.00
9323;DHT22;4700;48.822;9.270;2022-10-23T18:13:19;18.40;1.00
9323;DHT22;4700;48.822;9.270;2022-10-23T18:16:07;18.50;1.00
9323;DHT22;4700;48.822;9.270;2022-10-23T18:18:55;18.60;1.00
9323;DHT22;4700;48.822;9.270;2022-10-23T18:21:40;18.60;1.00
9323;DHT22;4700;48.822;9.270;2022-10-23T18:24:26;18.50;1.00
9323;DHT22;4700;48.822;9.270;2022-10-23T18:27:13;18.50;1.00
9323;DHT22;4700;48.822;9.270;2022-10-23T18:29:59;18.40;1.00
9323;DHT22;4700;48.822;9.270;2022-10-23T18:32:45;18.50;1.00
9323;DHT22;4700;48.822;9.270;2022-10-23T18:35:33;18.50;1.00
9323;DHT22;4700;48.822;9.270;2022-10-23T18:38:19;18.60;1.00
9323;DHT22;4700;48.822;9.270;2022-10-23T18:41:04;18.70;1.00
9323;DHT22;4700;48.822;9.270;2022-10-23T18:43:52;18.70;1.00
9323;DHT22;4700;48.822;9.270;2022-10-23T18:46:38;18.90;1.00
9323;DHT22;4700;48.822;9.270;2022-10-23T18:49:24;19.10;1.00
9323;DHT22;4700;48.822;9.270;2022-10-23T18:52:10;19.00;1.00
9323;DHT22;4700;48.822;9.270;2022-10-23T18:54:56;18.90;1.00
9323;DHT22;4700;48.822;9.270;2022-10-23T18:57:42;18.80;1.00
9323;DHT22;4700;48.822;9.270;2022-10-23T19:00:29;18.70;1.00
9323;DHT22;4700;48.822;9.270;2022-10-23T19:03:17;18.60;1.00
9323;DHT22;4700;48.822;9.270;2022-10-23T19:06:04;18.40;1.00
9323;DHT22;4700;48.822;9.270;2022-10-23T19:08:50;18.30;1.00
9323;DHT22;4700;48.822;9.270;2022-10-23T19:11:36;18.30;1.00
9323;DHT22;4700;48.822;9.270;2022-10-23T19:14:22;18.30;1.00
9323;DHT22;4700;48.822;9.270;2022-10-23T19:17:14;18.20;1.00
9323;DHT22;4700;48.822;9.270;2022-10-23T19:20:06;18.20;1.00
9323;DHT22;4700;48.822;9.270;2022-10-23T19:22:53;18.20;1.00
9323;DHT22;4700;48.822;9.270;2022-10-23T19:25:43;18.20;1.00
9323;DHT22;4700;48.822;9.270;2022-10-23T19:28:31;18.10;1.00
9323;DHT22;4700;48.822;9.270;2022-10-23T19:31:17;18.20;1.00
9323;DHT22;4700;48.822;9.270;2022-10-23T19:34:04;18.20;1.00
9323;DHT22;4700;48.822;9.270;2022-10-23T19:36:50;18.20;1.00
9323;DHT22;4700;48.822;9.270;2022-10-23T19:39:20;18.10;1.00
9323;DHT22;4700;48.822;9.270;2022-10-23T19:42:07;18.10;1.00
9323;DHT22;4700;48.822;9.270;2022-10-23T19:44:53;18.00;1.00
9323;DHT22;4700;48.822;9.270;2022-10-23T19:47:39;17.90;1.00
9323;DHT22;4700;48.822;9.270;2022-10-23T19:50:26;17.80;1.00
9323;DHT22;4700;48.822;9.270;2022-10-23T19:53:12;17.80;1.00
9323;DHT22;4700;48.822;9.270;2022-10-23T19:56:04;17.80;1.00
9323;DHT22;4700;48.822;9.270;2022-10-23T19:58:51;17.70;1.00
9323;DHT22;4700;48.822;9.270;2022-10-23T20:01:36;17.70;1.00
9323;DHT22;4700;48.822;9.270;2022-10-23T20:04:22;17.70;1.00
9323;DHT22;4700;48.822;9.270;2022-10-23T20:07:11;17.70;1.00
9323;DHT22;4700;48.822;9.270;2022-10-23T20:09:57;17.70;1.00
9323;DHT22;4700;48.822;9.270;2022-10-23T20:12:43;17.70;1.00
9323;DHT22;4700;48.822;9.270;2022-10-23T20:15:29;17.60;1.00
9323;DHT22;4700;48.822;9.270;2022-10-23T20:18:14;17.70;1.00
9323;DHT22;4700;48.822;9.270;2022-10-23T20:21:00;17.70;1.00
9323;DHT22;4700;48.822;9.270;2022-10-23T20:23:48;17.80;1.00
9323;DHT22;4700;48.822;9.270;2022-10-23T20:26:34;17.80;1.00
9323;DHT22;4700;48.822;9.270;2022-10-23T20:29:21;17.80;1.00
9323;DHT22;4700;48.822;9.270;2022-10-23T20:32:07;17.90;1.00
9323;DHT22;4700;48.822;9.270;2022-10-23T20:34:54;17.90;1.00
9323;DHT22;4700;48.822;9.270;2022-10-23T20:37:40;18.00;1.00
9323;DHT22;4700;48.822;9.270;2022-10-23T20:40:27;18.20;1.00
9323;DHT22;4700;48.822;9.270;2022-10-23T20:43:13;18.30;1.00
9323;DHT22;4700;48.822;9.270;2022-10-23T20:46:02;18.30;1.00
9323;DHT22;4700;48.822;9.270;2022-10-23T20:48:48;18.50;1.00
9323;DHT22;4700;48.822;9.270;2022-10-23T20:51:34;18.60;1.00
9323;DHT22;4700;48.822;9.270;2022-10-23T20:54:20;18.60;1.00
9323;DHT22;4700;48.822;9.270;2022-10-23T20:57:07;18.80;1.00
9323;DHT22;4700;48.822;9.270;2022-10-23T20:59:53;18.90;1.00
9323;DHT22;4700;48.822;9.270;2022-10-23T21:02:39;18.90;1.00
9323;DHT22;4700;48.822;9.270;2022-10-23T21:05:24;18.90;1.00
9323;DHT22;4700;48.822;9.270;2022-10-23T21:08:10;18.90;1.00
9323;DHT22;4700;48.822;9.270;2022-10-23T21:10:56;18.90;1.00
9323;DHT22;4700;48.822;9.270;2022-10-23T21:13:44;18.90;1.00
9323;DHT22;4700;48.822;9.270;2022-10-23T21:16:31;19.00;1.00
9323;DHT22;4700;48.822;9.270;2022-10-23T21:19:18;19.10;1.00
9323;DHT22;4700;48.822;9.270;2022-10-23T21:22:04;19.10;1.00
9323;DHT22;4700;48.822;9.270;2022-10-23T21:24:50;19.10;1.00
9323;DHT22;4700;48.822;9.270;2022-10-23T21:27:36;19.10;1.00
9323;DHT22;4700;48.822;9.270;2022-10-23T21:30:23;19.10;1.00
9323;DHT22;4700;48.822;9.270;2022-10-23T21:33:08;19.10;1.00
9323;DHT22;4700;48.822;9.270;2022-10-23T21:35:54;19.20;1.00
9323;DHT22;4700;48.822;9.270;2022-10-23T21:38:40;19.20;1.00
9323;DHT22;4700;48.822;9.270;2022-10-23T21:41:28;19.20;1.00
9323;DHT22;4700;48.822;9.270;2022-10-23T21:44:14;19.20;1.00
9323;DHT22;4700;48.822;9.270;2022-10-23T21:47:01;19.20;1.00
9323;DHT22;4700;48.822;9.270;2022-10-23T21:49:47;19.20;1.00
9323;DHT22;4700;48.822;9.270;2022-10-23T21:52:33;19.20;1.00
9323;DHT22;4700;48.822;9.270;2022-10-23T21:55:18;19.30;1.00
9323;DHT22;4700;48.822;9.270;2022-10-23T21:58:04;19.40;1.00
9323;DHT22;4700;48.822;9.270;2022-10-23T22:00:49;19.40;1.00
9323;DHT22;4700;48.822;9.270;2022-10-23T22:03:37;19.40;1.00
9323;DHT22;4700;48.822;9.270;2022-10-23T22:06:25;19.40;1.00
9323;DHT22;4700;48.822;9.270;2022-10-23T22:09:13;19.50;1.00
9323;DHT22;4700;48.822;9.270;2022-10-23T22:12:00;19.50;1.00
9323;DHT22;4700;48.822;9.270;2022-10-23T22:14:46;19.50;1.00
9323;DHT22;4700;48.822;9.270;2022-10-23T22:17:32;19.50;1.00
9323;DHT22;4700;48.822;9.270;2022-10-23T22:20:19;19.50;1.00
9323;DHT22;4700;48.822;9.270;2022-10-23T22:23:05;19.40;1.00
9323;DHT22;4700;48.822;9.270;2022-10-23T22:25:51;19.40;1.00
9323;DHT22;4700;48.822;9.270;2022-10-23T22:28:36;19.30;1.00
9323;DHT22;4700;48.822;9.270;2022-10-23T22:31:24;19.20;1.00
9323;DHT22;4700;48.822;9.270;2022-10-23T22:34:12;19.30;1.00
9323;DHT22;4700;48.822;9.270;2022-10-23T22:36:59;19.20;1.00
9323;DHT22;4700;48.822;9.270;2022-10-23T22:39:44;19.10;1.00
9323;DHT22;4700;48.822;9.270;2022-10-23T22:42:30;19.00;1.00
9323;DHT22;4700;48.822;9.270;2022-10-23T22:45:16;19.00;1.00
9323;DHT22;4700;48.822;9.270;2022-10-23T22:48:02;19.00;1.00
9323;DHT22;4700;48.822;9.270;2022-10-23T22:50:48;19.00;1.00
9323;DHT22;4700;48.822;9.270;2022-10-23T22:53:35;19.00;1.00
9323;DHT22;4700;48.822;9.270;2022-10-23T22:56:22;19.00;1.00
9323;DHT22;4700;48.822;9.270;2022-10-23T22:59:08;19.00;1.00
9323;DHT22;4700;48.822;9.270;2022-10-23T23:01:54;18.90;1.00
9323;DHT22;4700;48.822;9.270;2022-10-23T23:04:40;18.90;1.00
9323;DHT22;4700;48.822;9.270;2022-10-23T23:07:27;18.90;1.00
9323;DHT22;4700;48.822;9.270;2022-10-23T23:10:14;18.90;1.00
9323;DHT22;4700;48.822;9.270;2022-10-23T23:13:00;18.80;1.00
9323;DHT22;4700;48.822;9.270;2022-10-23T23:15:45;18.80;1.00
9323;DHT22;4700;48.822;9.270;2022-10-23T23:18:31;18.80;1.00
9323;DHT22;4700;48.822;9.270;2022-10-23T23:21:18;18.70;1.00
9323;DHT22;4700;48.822;9.270;2022-10-23T23:24:04;18.70;1.00
9323;DHT22;4700;48.822;9.270;2022-10-23T23:26:51;18.70;1.00
9323;DHT22;4700;48.822;9.270;2022-10-23T23:29:37;18.60;1.00
9323;DHT22;4700;48.822;9.270;2022-10-23T23:32:22;18.60;1.00
9323;DHT22;4700;48.822;9.270;2022-10-23T23:35:08;18.60;1.00
9323;DHT22;4700;48.822;9.270;2022-10-23T23:37:54;18.60;1.00
9323;DHT22;4700;48.822;9.270;2022-10-23T23:40:25;18.60;1.00
9323;DHT22;4700;48.822;9.270;2022-10-23T23:43:12;18.60;1.00
9323;DHT22;4700;48.822;9.270;2022-10-23T23:45:58;18.60;1.00
9323;DHT22;4700;48.822;9.270;2022-10-23T23:48:44;18.60;1.00
9323;DHT22;4700;48.822;9.270;2022-10-23T23:51:31;18.60;1.00
9323;DHT22;4700;48.822;9.270;2022-10-23T23:54:17;18.60;1.00
9323;DHT22;4700;48.822;9.270;2022-10-23T23:57:03;18.50;1.00
9323;DHT22;4700;48.822;9.270;2022-10-23T23:59:50;18.40;1.00
